Time;durP1;ratioP1;P1;durP2;ratioP2;P2;SDS_P1;SDS_P2;PMS_P1;PMS_P2;Temp;Humidity;BMP_temperature;BMP_pressure;BME280_temperature;BME280_humidity;BME280_pressure;Samples;Min_cycle;Max_cycle;Signal;HPM_P1;HPM_P2
2022/05/02 05:00:22;;;;;;;16.60;15.20;;;11.50;97.20;;;;;;1716842;28;20189;-74
2022/05/02 05:01:13;;;;;;;17.35;15.70;;;11.50;97.20;;;;;;1718427;28;20580;-74
2022/05/02 05:02:06;;;;;;;17.10;15.60;;;11.50;97.20;;;;;;1714702;28;20680;-74
2022/05/02 05:02:56;;;;;;;16.15;14.75;;;11.50;97.20;;;;;;1714226;28;20678;-74
2022/05/02 05:03:48;;;;;;;16.20;14.80;;;11.50;97.20;;;;;;1717127;28;20733;-74
2022/05/02 05:04:39;;;;;;;17.55;16.05;;;11.50;97.20;;;;;;1714103;28;20475;-74
2022/05/02 05:05:31;;;;;;;17.00;15.50;;;11.40;97.20;;;;;;1717527;28;20272;-74
2022/05/02 05:06:22;;;;;;;17.05;15.25;;;11.40;97.20;;;;;;1718427;28;20610;-74
2022/05/02 05:07:14;;;;;;;17.67;16.00;;;11.40;97.20;;;;;;1716268;28;20296;-75
2022/05/02 05:08:05;;;;;;;15.18;13.80;;;11.40;97.20;;;;;;1719935;28;20818;-74
2022/05/02 05:08:56;;;;;;;15.75;14.45;;;11.40;97.20;;;;;;1715496;28;20654;-74
2022/05/02 05:09:47;;;;;;;16.58;15.07;;;11.40;97.20;;;;;;1718187;28;20197;-75
2022/05/02 05:10:49;;;;;;;14.55;13.25;;;11.40;97.20;;;;;;1715904;28;20189;-75
2022/05/02 05:11:50;;;;;;;15.85;14.38;;;11.40;97.20;;;;;;1716855;28;20280;-75
2022/05/02 05:13:02;;;;;;;15.85;14.45;;;11.40;97.20;;;;;;1716751;28;20194;-75
2022/05/02 05:16:54;;;;;;;15.57;14.20;;;11.40;97.20;;;;;;1721454;28;20203;-72
2022/05/02 05:17:55;;;;;;;14.02;12.82;;;11.40;97.20;;;;;;1718769;28;20681;-77
2022/05/02 05:19:01;;;;;;;14.65;13.13;;;11.40;97.20;;;;;;1713442;28;20915;-77
2022/05/02 05:20:02;;;;;;;15.45;14.10;;;11.40;97.20;;;;;;1713694;28;20230;-77
2022/05/02 05:21:00;;;;;;;15.82;14.23;;;11.40;97.20;;;;;;1713849;28;20590;-77
2022/05/02 05:22:01;;;;;;;15.00;13.60;;;11.40;97.20;;;;;;1716626;28;20198;-77
2022/05/02 05:23:24;;;;;;;14.52;13.20;;;11.40;97.20;;;;;;1714341;28;20233;-77
2022/05/02 05:25:03;;;;;;;15.70;14.30;;;11.50;97.20;;;;;;1717183;28;20667;-77
2022/05/02 05:26:04;;;;;;;14.98;13.68;;;11.50;97.20;;;;;;1714523;28;20242;-77
2022/05/02 05:27:08;;;;;;;14.93;13.52;;;11.50;97.20;;;;;;1714371;28;20191;-77
2022/05/02 05:28:22;;;;;;;15.27;14.05;;;11.50;97.20;;;;;;1715588;28;20289;-77
2022/05/02 05:29:32;;;;;;;16.17;14.55;;;11.50;97.20;;;;;;1714097;28;20565;-77
2022/05/02 05:30:27;;;;;;;16.73;15.10;;;11.50;97.20;;;;;;1714570;28;20662;-77
2022/05/02 05:31:31;;;;;;;17.38;15.85;;;11.60;97.20;;;;;;1714976;28;20217;-76
2022/05/02 05:32:29;;;;;;;15.82;14.43;;;11.60;97.20;;;;;;1714868;28;20207;-76
2022/05/02 05:33:27;;;;;;;15.10;13.85;;;11.60;97.20;;;;;;1714734;28;20533;-77
2022/05/02 05:34:27;;;;;;;16.45;14.95;;;11.60;97.20;;;;;;1714747;28;20228;-76
2022/05/02 05:35:23;;;;;;;16.15;14.75;;;11.60;97.20;;;;;;1714793;28;20237;-76
2022/05/02 05:36:32;;;;;;;16.10;14.60;;;11.70;97.20;;;;;;1714717;28;20210;-76
2022/05/02 05:37:48;;;;;;;17.08;15.20;;;11.70;97.20;;;;;;1714836;28;20210;-76
2022/05/02 05:38:49;;;;;;;16.60;15.20;;;11.70;97.20;;;;;;1714480;28;20289;-77
2022/05/02 05:39:49;;;;;;;15.93;14.43;;;11.80;97.20;;;;;;1714674;28;20240;-76
2022/05/02 05:40:42;;;;;;;16.30;14.63;;;11.80;97.20;;;;;;1714651;28;20198;-76
2022/05/02 05:41:55;;;;;;;15.95;14.45;;;11.80;97.20;;;;;;1714722;28;20205;-77
2022/05/02 05:43:02;;;;;;;16.88;15.48;;;11.90;97.20;;;;;;1714729;28;20198;-77
2022/05/02 05:44:01;;;;;;;16.65;15.13;;;11.90;97.20;;;;;;1714708;28;20206;-76
2022/05/02 05:44:59;;;;;;;20.10;18.05;;;11.90;97.20;;;;;;1719048;28;20202;-76
2022/05/02 05:46:07;;;;;;;18.88;17.13;;;12.00;97.20;;;;;;1721344;28;20206;-77
2022/05/02 05:47:14;;;;;;;19.17;17.58;;;12.00;97.20;;;;;;1721468;28;20213;-76
2022/05/02 05:48:17;;;;;;;19.17;17.27;;;12.00;97.20;;;;;;1720907;28;20252;-77
2022/05/02 05:49:14;;;;;;;20.58;18.70;;;12.00;97.20;;;;;;1721391;28;20669;-77
2022/05/02 05:50:17;;;;;;;19.27;17.58;;;12.10;97.20;;;;;;1721330;28;20266;-76
2022/05/02 05:51:22;;;;;;;18.38;16.77;;;12.10;97.20;;;;;;1718987;28;20194;-78
2022/05/02 05:52:18;;;;;;;20.73;18.83;;;12.10;97.20;;;;;;1716463;28;20206;-78
2022/05/02 05:53:15;;;;;;;19.02;17.38;;;12.20;97.20;;;;;;1719367;28;20197;-79
2022/05/02 05:54:26;;;;;;;20.58;17.85;;;12.20;97.20;;;;;;1722897;28;20628;-79
2022/05/02 05:55:27;;;;;;;21.48;19.27;;;12.20;97.20;;;;;;1724501;28;20201;-79
2022/05/02 05:56:36;;;;;;;20.90;18.80;;;12.30;97.20;;;;;;1724398;28;20213;-79
2022/05/02 05:57:45;;;;;;;21.20;19.00;;;12.30;97.20;;;;;;1722789;28;20202;-78
2022/05/02 05:58:46;;;;;;;19.80;17.88;;;12.30;97.20;;;;;;1723341;28;20205;-79
2022/05/02 05:59:49;;;;;;;19.35;17.65;;;12.30;97.20;;;;;;1723180;28;20295;-79
2022/05/02 06:00:44;;;;;;;21.40;19.50;;;12.30;97.20;;;;;;1724310;28;20205;-81
2022/05/02 06:01:53;;;;;;;23.35;21.25;;;12.40;97.20;;;;;;1723490;28;20197;-79
2022/05/02 06:02:54;;;;;;;20.60;18.80;;;12.40;97.20;;;;;;1725020;28;20589;-81
2022/05/02 06:04:00;;;;;;;24.70;22.40;;;12.50;97.20;;;;;;1725488;28;20232;-80
2022/05/02 06:04:51;;;;;;;23.38;21.27;;;12.50;97.20;;;;;;1720967;28;20611;-80
2022/05/02 06:05:44;;;;;;;24.58;22.25;;;12.50;97.20;;;;;;1721707;28;20193;-80
2022/05/02 06:06:36;;;;;;;27.73;25.15;;;12.60;97.20;;;;;;1717219;28;20206;-81
2022/05/02 06:07:29;;;;;;;27.35;24.83;;;12.60;97.20;;;;;;1723294;28;20225;-79
2022/05/02 06:08:22;;;;;;;26.77;24.20;;;12.60;97.20;;;;;;1721993;28;20202;-78
2022/05/02 06:09:15;;;;;;;28.10;25.10;;;12.70;97.20;;;;;;1724694;28;20229;-76
2022/05/02 06:10:09;;;;;;;29.23;26.40;;;12.70;97.20;;;;;;1721629;28;20216;-77
2022/05/02 06:11:02;;;;;;;28.90;26.05;;;12.80;97.20;;;;;;1718395;28;20290;-77
2022/05/02 06:11:57;;;;;;;29.80;26.92;;;12.80;97.20;;;;;;1715005;28;20201;-77
2022/05/02 06:12:50;;;;;;;27.17;24.65;;;12.80;97.20;;;;;;1715731;28;20222;-77
2022/05/02 06:13:43;;;;;;;31.30;28.35;;;12.90;97.20;;;;;;1714736;28;20222;-77
2022/05/02 06:18:27;;;;;;;29.52;26.83;;;12.90;97.20;;;;;;1714529;28;20198;-77
2022/05/02 06:18:29;;;;;;;28.90;26.13;;;13.00;97.20;;;;;;1701314;29;20234;-81
2022/05/02 06:19:25;;;;;;;29.45;26.73;;;13.10;97.20;;;;;;1716139;28;20653;-81
2022/05/02 06:20:19;;;;;;;29.42;26.65;;;13.10;97.20;;;;;;1715862;28;20209;-82
2022/05/02 06:21:10;;;;;;;28.20;25.33;;;13.10;97.20;;;;;;1717379;28;20669;-77
2022/05/02 06:22:03;;;;;;;28.40;25.70;;;13.20;97.20;;;;;;1722454;28;20220;-81
2022/05/02 06:22:54;;;;;;;27.60;25.00;;;13.20;97.20;;;;;;1723536;28;20582;-81
2022/05/02 06:23:50;;;;;;;26.73;24.25;;;13.30;97.20;;;;;;1722716;28;20221;-82
2022/05/02 06:24:45;;;;;;;25.90;23.58;;;13.30;97.20;;;;;;1721565;28;20205;-69
2022/05/02 06:25:38;;;;;;;23.95;21.75;;;13.30;97.20;;;;;;1721227;28;20648;-77
2022/05/02 06:26:29;;;;;;;25.38;22.95;;;13.40;97.20;;;;;;1721183;28;20572;-78
2022/05/02 06:27:21;;;;;;;25.30;22.67;;;13.40;97.20;;;;;;1721195;28;20275;-78
2022/05/02 06:28:14;;;;;;;25.67;23.23;;;13.40;97.20;;;;;;1720809;28;20293;-77
2022/05/02 06:29:08;;;;;;;25.02;22.70;;;13.50;97.20;;;;;;1721165;28;20284;-77
2022/05/02 06:30:00;;;;;;;25.88;23.48;;;13.50;97.20;;;;;;1721029;28;20197;-77
2022/05/02 06:30:54;;;;;;;25.65;23.30;;;13.50;97.20;;;;;;1714568;28;20205;-77
2022/05/02 06:31:50;;;;;;;27.23;24.60;;;13.60;97.20;;;;;;1714364;28;20621;-77
2022/05/02 06:32:44;;;;;;;26.20;23.63;;;13.60;97.20;;;;;;1714171;28;20202;-77
2022/05/02 06:33:35;;;;;;;25.40;23.00;;;13.70;97.20;;;;;;1713970;28;20250;-77
2022/05/02 06:34:28;;;;;;;26.90;24.37;;;13.70;97.20;;;;;;1713880;28;20209;-77
2022/05/02 06:35:19;;;;;;;24.70;22.17;;;13.70;97.20;;;;;;1713254;28;20449;-77
2022/05/02 06:36:55;;;;;;;24.53;22.13;;;13.80;97.20;;;;;;1713701;28;20240;-77
2022/05/02 06:37:54;;;;;;;25.60;23.30;;;13.80;97.20;;;;;;1709141;28;20492;-77
2022/05/02 06:38:54;;;;;;;26.02;23.38;;;13.90;97.20;;;;;;1714007;28;20248;-77
2022/05/02 06:40:02;;;;;;;25.15;22.67;;;13.90;97.20;;;;;;1713999;28;20237;-77
2022/05/02 06:41:04;;;;;;;26.27;23.50;;;14.00;97.20;;;;;;1713863;28;20194;-77
2022/05/02 06:42:18;;;;;;;26.52;24.13;;;14.00;97.20;;;;;;1714339;28;20210;-77
2022/05/02 06:43:18;;;;;;;26.15;23.40;;;14.00;97.20;;;;;;1714135;28;20561;-77
2022/05/02 06:44:15;;;;;;;25.92;23.17;;;14.10;97.20;;;;;;1716140;28;20201;-77
2022/05/02 06:45:22;;;;;;;23.65;21.55;;;14.10;97.20;;;;;;1721138;28;20205;-77
2022/05/02 06:46:19;;;;;;;25.15;22.98;;;14.20;97.20;;;;;;1720994;28;20263;-77
2022/05/02 06:47:19;;;;;;;25.23;22.85;;;14.20;97.20;;;;;;1721010;28;20197;-77
2022/05/02 06:48:27;;;;;;;27.05;24.48;;;14.20;97.20;;;;;;1720674;28;20211;-78
2022/05/02 06:49:20;;;;;;;26.02;23.52;;;14.20;97.20;;;;;;1720919;28;20259;-77
2022/05/02 06:50:13;;;;;;;24.90;22.67;;;14.30;97.20;;;;;;1720990;28;20708;-78
2022/05/02 06:51:07;;;;;;;25.60;22.55;;;14.30;97.20;;;;;;1720648;28;20259;-77
2022/05/02 06:51:58;;;;;;;24.80;22.48;;;14.40;97.20;;;;;;1721012;28;20233;-78
2022/05/02 06:53:00;;;;;;;22.80;20.65;;;14.40;97.20;;;;;;1721043;28;20619;-77
2022/05/02 06:54:15;;;;;;;21.42;19.42;;;14.40;97.20;;;;;;1720954;28;20262;-77
2022/05/02 06:55:16;;;;;;;24.52;22.00;;;14.50;97.20;;;;;;1720951;28;20205;-77
2022/05/02 06:56:15;;;;;;;24.15;21.95;;;14.50;97.20;;;;;;1720849;28;20206;-77
2022/05/02 06:57:15;;;;;;;23.02;20.92;;;14.60;97.20;;;;;;1720954;28;20262;-77
2022/05/02 06:58:23;;;;;;;22.75;20.40;;;14.60;97.20;;;;;;1720620;28;20209;-77
2022/05/02 06:59:31;;;;;;;22.10;20.10;;;14.60;97.20;;;;;;1720778;28;20207;-77
2022/05/02 07:00:22;;;;;;;21.20;19.25;;;14.60;97.20;;;;;;1719354;28;20206;-77
2022/05/02 07:01:24;;;;;;;23.23;21.23;;;14.70;97.20;;;;;;1721033;28;20215;-77
2022/05/02 07:02:34;;;;;;;21.95;19.70;;;14.70;97.20;;;;;;1720905;28;20330;-77
2022/05/02 07:04:05;;;;;;;22.67;20.38;;;14.80;97.20;;;;;;1720924;28;20232;-77
2022/05/02 07:04:58;;;;;;;21.67;19.85;;;14.90;97.20;;;;;;1721016;28;20212;-77
2022/05/02 07:06:01;;;;;;;22.27;20.08;;;14.90;97.20;;;;;;1720913;28;20197;-77
2022/05/02 07:07:10;;;;;;;23.38;21.35;;;15.00;97.20;;;;;;1720857;28;20652;-77
2022/05/02 07:08:04;;;;;;;23.48;21.33;;;15.00;97.20;;;;;;1720744;28;20216;-78
2022/05/02 07:09:01;;;;;;;23.02;20.85;;;15.10;97.20;;;;;;1720896;28;20280;-77
2022/05/02 07:09:58;;;;;;;22.52;20.52;;;15.10;97.20;;;;;;1720827;28;20684;-77
2022/05/02 07:10:55;;;;;;;21.52;19.52;;;15.20;97.20;;;;;;1720800;28;20703;-77
2022/05/02 07:11:54;;;;;;;22.70;20.48;;;15.20;97.20;;;;;;1720910;28;20209;-77
2022/05/02 07:12:54;;;;;;;22.10;19.88;;;15.30;97.20;;;;;;1720813;28;20224;-77
2022/05/02 07:14:02;;;;;;;20.58;18.52;;;15.30;97.20;;;;;;1720720;28;20639;-77
2022/05/02 07:15:05;;;;;;;22.10;20.08;;;15.40;97.20;;;;;;1720805;28;20197;-77
2022/05/02 07:16:05;;;;;;;21.40;19.40;;;15.40;97.20;;;;;;1720802;28;20633;-77
2022/05/02 07:17:03;;;;;;;22.02;20.02;;;15.50;97.20;;;;;;1719189;28;20612;-77
2022/05/02 07:18:03;;;;;;;24.10;21.80;;;15.60;97.20;;;;;;1720775;28;20211;-77
2022/05/02 07:19:19;;;;;;;22.40;20.30;;;15.60;97.20;;;;;;1720805;28;20248;-78
2022/05/02 07:20:16;;;;;;;22.45;20.33;;;15.60;97.20;;;;;;1720997;28;20205;-78
2022/05/02 07:21:25;;;;;;;21.90;20.00;;;15.70;97.20;;;;;;1720689;28;20201;-78
2022/05/02 07:22:27;;;;;;;22.85;20.75;;;15.70;97.20;;;;;;1720976;28;20232;-77
2022/05/02 07:23:41;;;;;;;23.42;21.23;;;15.80;97.20;;;;;;1720861;28;20715;-78
2022/05/02 07:24:47;;;;;;;23.63;21.23;;;15.80;97.20;;;;;;1720870;28;20228;-78
2022/05/02 07:25:43;;;;;;;23.02;20.67;;;15.90;97.20;;;;;;1720892;28;20738;-78
2022/05/02 07:26:37;;;;;;;22.15;20.00;;;15.90;97.20;;;;;;1720774;28;20197;-78
2022/05/02 07:27:42;;;;;;;21.70;19.65;;;15.90;97.20;;;;;;1721021;28;20696;-78
2022/05/02 07:28:39;;;;;;;21.10;19.20;;;15.90;97.20;;;;;;1720572;28;20236;-78
2022/05/02 07:29:33;;;;;;;21.67;19.65;;;16.00;97.20;;;;;;1720889;28;20228;-78
2022/05/02 07:30:24;;;;;;;21.38;19.40;;;16.00;97.20;;;;;;1720938;28;20598;-77
2022/05/02 07:31:20;;;;;;;22.80;20.70;;;16.10;97.20;;;;;;1721118;28;20647;-78
2022/05/02 07:32:13;;;;;;;21.77;19.73;;;16.10;97.20;;;;;;1720833;28;20448;-78
2022/05/02 07:33:10;;;;;;;21.95;19.95;;;16.10;97.20;;;;;;1720318;28;20201;-77
2022/05/02 07:34:04;;;;;;;22.42;20.30;;;16.10;97.20;;;;;;1714267;28;20621;-77
2022/05/02 07:34:55;;;;;;;23.00;20.90;;;16.10;97.20;;;;;;1714139;28;20237;-77
2022/05/02 07:35:50;;;;;;;22.15;20.15;;;16.10;97.20;;;;;;1714142;28;20194;-78
2022/05/02 07:36:44;;;;;;;23.45;21.20;;;16.10;97.20;;;;;;1713969;28;20272;-78
2022/05/02 07:37:36;;;;;;;22.67;20.52;;;16.10;97.20;;;;;;1714068;28;20221;-78
2022/05/02 07:38:31;;;;;;;22.90;20.80;;;16.10;97.20;;;;;;1713788;28;20640;-78
2022/05/02 07:39:24;;;;;;;20.98;19.10;;;16.10;97.20;;;;;;1714022;28;20221;-78
2022/05/02 07:40:19;;;;;;;21.98;20.00;;;16.20;97.20;;;;;;1714127;28;20212;-78
2022/05/02 07:41:26;;;;;;;22.13;19.80;;;16.20;97.20;;;;;;1714002;28;20256;-78
2022/05/02 07:42:18;;;;;;;22.25;20.15;;;16.30;97.20;;;;;;1714003;28;20330;-78
2022/05/02 07:43:10;;;;;;;21.92;19.80;;;16.30;97.20;;;;;;1713836;28;20206;-78
2022/05/02 07:44:03;;;;;;;23.58;21.48;;;16.40;97.20;;;;;;1714035;28;20216;-78
2022/05/02 07:44:58;;;;;;;22.05;20.05;;;16.40;97.20;;;;;;1713976;28;20205;-77
2022/05/02 07:45:49;;;;;;;22.45;20.38;;;16.50;97.20;;;;;;1713948;28;20202;-78
2022/05/02 07:46:43;;;;;;;22.75;20.65;;;16.50;97.20;;;;;;1714032;28;20681;-78
2022/05/02 07:47:35;;;;;;;22.02;19.92;;;16.60;97.20;;;;;;1713971;28;20236;-77
2022/05/02 07:48:27;;;;;;;21.95;20.02;;;16.60;97.20;;;;;;1713668;28;20284;-78
2022/05/02 07:49:24;;;;;;;22.35;20.45;;;16.70;97.20;;;;;;1713890;28;20595;-78
2022/05/02 07:50:18;;;;;;;22.98;20.77;;;16.70;97.20;;;;;;1719767;28;20212;-78
2022/05/02 07:51:13;;;;;;;21.73;19.63;;;16.70;97.20;;;;;;1720291;28;20664;-77
2022/05/02 07:52:08;;;;;;;21.33;19.52;;;16.80;97.20;;;;;;1720198;28;20212;-77
2022/05/02 07:53:02;;;;;;;21.48;19.58;;;16.80;97.20;;;;;;1720690;28;20645;-78
2022/05/02 07:53:53;;;;;;;21.85;19.95;;;16.80;97.20;;;;;;1720649;28;20279;-77
2022/05/02 07:54:48;;;;;;;22.15;20.15;;;16.80;97.20;;;;;;1720639;28;20319;-77
2022/05/02 07:55:40;;;;;;;22.20;20.23;;;16.90;97.20;;;;;;1720647;28;20229;-77
2022/05/02 07:56:33;;;;;;;21.40;19.40;;;16.90;97.20;;;;;;1720588;28;20276;-77
2022/05/02 07:57:27;;;;;;;21.23;19.33;;;17.00;97.20;;;;;;1720679;28;20497;-78
2022/05/02 07:58:20;;;;;;;22.05;20.00;;;17.00;97.20;;;;;;1720311;28;20373;-78
2022/05/02 07:59:14;;;;;;;22.98;20.98;;;17.10;97.20;;;;;;1719584;28;20236;-77
2022/05/02 08:00:10;;;;;;;21.77;19.73;;;17.10;97.20;;;;;;1713933;28;20252;-78
2022/05/02 08:01:00;;;;;;;22.85;20.85;;;17.10;97.20;;;;;;1713927;28;20726;-78
2022/05/02 08:01:53;;;;;;;22.20;20.10;;;17.20;97.20;;;;;;1720372;28;20343;-78
2022/05/02 08:02:44;;;;;;;22.48;20.48;;;17.20;97.20;;;;;;1720722;28;20239;-77
2022/05/02 08:03:36;;;;;;;21.90;19.90;;;17.30;97.20;;;;;;1720792;28;20221;-78
2022/05/02 08:04:28;;;;;;;21.20;19.30;;;17.40;97.20;;;;;;1720586;28;20525;-78
2022/05/02 08:05:21;;;;;;;21.23;19.20;;;17.40;97.20;;;;;;1720697;28;20294;-77
2022/05/02 08:06:22;;;;;;;22.42;20.27;;;17.50;97.20;;;;;;1720600;28;20205;-78
2022/05/02 08:07:17;;;;;;;21.63;19.67;;;17.50;97.20;;;;;;1720634;28;20280;-78
2022/05/02 08:08:18;;;;;;;21.25;19.25;;;17.60;97.20;;;;;;1720186;28;20205;-78
2022/05/02 08:09:25;;;;;;;21.45;19.52;;;17.60;97.20;;;;;;1720584;28;20216;-78
2022/05/02 08:10:45;;;;;;;20.17;18.45;;;17.70;97.20;;;;;;1720627;28;20193;-78
2022/05/02 08:11:48;;;;;;;18.73;16.98;;;17.80;97.20;;;;;;1720629;28;20205;-78
2022/05/02 08:12:41;;;;;;;21.10;19.10;;;17.90;97.20;;;;;;1720630;28;20197;-78
2022/05/02 08:13:39;;;;;;;19.33;17.45;;;18.00;97.20;;;;;;1720363;28;20240;-77
2022/05/02 08:14:42;;;;;;;19.40;17.70;;;18.10;97.20;;;;;;1720591;28;20691;-77
2022/05/02 08:15:41;;;;;;;17.83;16.33;;;18.20;97.20;;;;;;1714726;28;20217;-77
2022/05/02 08:16:34;;;;;;;20.35;18.60;;;18.30;97.20;;;;;;1713829;28;20210;-78
2022/05/02 08:17:41;;;;;;;20.20;18.30;;;18.30;97.20;;;;;;1713874;28;20213;-77
2022/05/02 08:19:09;;;;;;;20.80;18.90;;;18.40;97.20;;;;;;1713572;28;20209;-77
2022/05/02 08:20:10;;;;;;;17.60;16.05;;;18.50;97.20;;;;;;1712051;28;20270;-78
2022/05/02 08:21:04;;;;;;;17.55;15.98;;;18.60;97.20;;;;;;1714077;28;20213;-78
2022/05/02 08:27:28;;;;;;;19.08;17.33;;;18.90;97.20;;;;;;1718943;28;20747;-78
2022/05/02 08:28:32;;;;;;;17.98;16.27;;;18.90;97.20;;;;;;1720293;28;20205;-78
2022/05/02 08:29:29;;;;;;;16.90;15.40;;;18.90;97.20;;;;;;1720437;28;20721;-78
2022/05/02 08:30:24;;;;;;;17.65;16.15;;;18.90;97.20;;;;;;1718937;28;20217;-78
2022/05/02 08:31:20;;;;;;;18.92;17.15;;;18.90;97.20;;;;;;1720488;28;20205;-78
2022/05/02 08:32:23;;;;;;;18.52;16.92;;;19.00;97.20;;;;;;1720558;28;20209;-78
2022/05/02 08:33:25;;;;;;;18.40;16.80;;;19.00;97.20;;;;;;1717799;28;20210;-78
2022/05/02 08:34:28;;;;;;;18.50;16.80;;;19.00;97.20;;;;;;1713675;28;20665;-78
2022/05/02 08:35:33;;;;;;;17.75;16.25;;;19.10;97.20;;;;;;1716195;28;20194;-77
2022/05/02 08:36:31;;;;;;;18.15;16.25;;;19.20;97.20;;;;;;1714199;28;20326;-78
2022/05/02 08:37:36;;;;;;;15.05;13.75;;;19.20;97.20;;;;;;1716083;28;20197;-78
2022/05/02 08:38:41;;;;;;;15.88;14.43;;;19.20;97.20;;;;;;1715478;28;20210;-78
2022/05/02 08:39:41;;;;;;;19.80;17.63;;;19.30;97.20;;;;;;1713780;28;20287;-79
2022/05/02 08:41:11;;;;;;;18.50;16.70;;;19.30;97.20;;;;;;1716897;28;20718;-77
2022/05/02 08:42:38;;;;;;;18.88;17.17;;;19.50;97.20;;;;;;1713791;28;20206;-78
2022/05/02 08:43:52;;;;;;;16.73;15.27;;;19.60;97.20;;;;;;1698832;29;20258;-78
2022/05/02 08:45:29;;;;;;;16.55;15.05;;;19.60;97.20;;;;;;1719248;28;20193;-78
2022/05/02 08:46:42;;;;;;;16.90;15.40;;;19.50;97.20;;;;;;1715932;28;20685;-78
2022/05/02 08:48:19;;;;;;;16.27;14.88;;;19.50;97.20;;;;;;1717552;28;20201;-77
2022/05/02 08:49:44;;;;;;;15.88;14.38;;;19.50;97.20;;;;;;1719202;28;20240;-78
2022/05/02 08:51:00;;;;;;;15.80;14.40;;;19.60;97.20;;;;;;1713921;28;20201;-78
2022/05/02 08:52:26;;;;;;;15.90;14.50;;;19.70;97.20;;;;;;1707782;28;20212;-78
2022/05/02 08:53:54;;;;;;;15.27;13.90;;;19.80;97.20;;;;;;1713720;28;20737;-78
2022/05/02 08:55:20;;;;;;;16.10;14.38;;;19.90;97.20;;;;;;1718208;28;20207;-78
2022/05/02 08:56:39;;;;;;;15.77;14.23;;;20.00;97.20;;;;;;1710906;28;20572;-78
2022/05/02 08:58:04;;;;;;;15.70;14.23;;;20.10;97.20;;;;;;1715938;28;20197;-78
2022/05/02 08:59:27;;;;;;;15.25;13.85;;;20.20;97.20;;;;;;1720400;28;20206;-78
2022/05/02 09:00:26;;;;;;;15.30;13.90;;;20.10;97.20;;;;;;1697783;29;20560;-78
2022/05/02 09:01:52;;;;;;;15.55;14.15;;;20.00;97.20;;;;;;1708190;28;20226;-78
2022/05/02 09:03:26;;;;;;;14.68;13.40;;;20.00;97.20;;;;;;1710010;28;20198;-78
2022/05/02 09:05:09;;;;;;;15.00;13.70;;;20.10;97.20;;;;;;1714958;28;20213;-78
2022/05/02 09:06:48;;;;;;;16.05;14.02;;;20.20;97.20;;;;;;1718660;28;20208;-77
2022/05/02 09:08:02;;;;;;;15.05;13.75;;;20.30;97.20;;;;;;1714645;28;20202;-78
2022/05/02 09:09:26;;;;;;;15.50;14.20;;;20.50;97.20;;;;;;1714596;28;20895;-77
2022/05/02 09:10:23;;;;;;;12.75;11.57;;;20.40;97.20;;;;;;1704784;28;20217;-79
2022/05/02 09:11:32;;;;;;;13.48;12.27;;;20.30;97.20;;;;;;1718600;28;20221;-77
2022/05/02 09:12:59;;;;;;;14.23;13.02;;;20.30;97.20;;;;;;1720356;28;20236;-78
2022/05/02 09:14:40;;;;;;;14.63;13.35;;;20.30;97.20;;;;;;1714690;28;20238;-78
2022/05/02 09:16:07;;;;;;;15.18;13.88;;;20.30;97.20;;;;;;1719682;28;20204;-79
2022/05/02 09:17:33;;;;;;;13.88;12.18;;;20.40;97.20;;;;;;1716755;28;20701;-78
2022/05/02 09:18:56;;;;;;;12.52;11.43;;;20.60;97.20;;;;;;1714683;28;20585;-78
2022/05/02 09:20:20;;;;;;;13.30;12.07;;;20.70;97.20;;;;;;1714892;28;20229;-78
2022/05/02 09:21:28;;;;;;;13.73;12.43;;;20.90;97.20;;;;;;1717459;28;20618;-78
2022/05/02 09:22:52;;;;;;;11.73;10.77;;;21.10;97.20;;;;;;1714923;28;20198;-77
2022/05/02 09:24:18;;;;;;;11.73;10.73;;;21.20;97.20;;;;;;1717541;28;20217;-78
2022/05/02 09:25:10;;;;;;;12.27;11.13;;;21.30;97.20;;;;;;1714812;28;20210;-78
2022/05/02 09:26:29;;;;;;;12.23;11.07;;;21.30;97.20;;;;;;1714765;28;20652;-79
2022/05/02 09:27:36;;;;;;;11.50;10.43;;;21.40;97.20;;;;;;1714887;28;20237;-78
2022/05/02 09:28:35;;;;;;;11.40;10.25;;;21.50;97.20;;;;;;1717729;28;20231;-78
2022/05/02 09:30:16;;;;;;;11.82;10.75;;;21.60;97.20;;;;;;1721391;28;20209;-77
2022/05/02 09:31:26;;;;;;;12.43;11.27;;;21.70;97.20;;;;;;1700758;29;20260;-78
2022/05/02 09:32:22;;;;;;;11.85;10.65;;;21.90;97.20;;;;;;1700773;29;20207;-78
2022/05/02 09:33:30;;;;;;;12.10;10.88;;;22.00;97.20;;;;;;1700601;29;20203;-78
2022/05/02 09:34:35;;;;;;;9.77;8.88;;;22.10;97.20;;;;;;1700751;29;20215;-78
2022/05/02 09:35:31;;;;;;;11.63;10.63;;;22.10;97.20;;;;;;1694081;29;20263;-78
2022/05/02 09:36:29;;;;;;;12.48;11.43;;;22.20;97.20;;;;;;1696167;28;20757;-78
2022/05/02 09:37:28;;;;;;;12.77;11.68;;;22.10;97.20;;;;;;1714725;28;20585;-79
2022/05/02 09:38:25;;;;;;;12.20;11.20;;;22.10;97.20;;;;;;1714537;28;20202;-78
2022/05/02 09:39:24;;;;;;;11.77;10.70;;;22.20;97.20;;;;;;1714657;28;20217;-78
2022/05/02 09:40:15;;;;;;;12.20;11.10;;;22.20;97.20;;;;;;1714777;28;20202;-78
2022/05/02 09:41:19;;;;;;;13.40;12.20;;;22.30;97.20;;;;;;1714774;28;20201;-78
2022/05/02 09:42:33;;;;;;;13.25;12.05;;;22.40;97.20;;;;;;1714782;28;20206;-78
2022/05/02 09:49:33;;;;;;;11.00;10.10;;;22.40;97.20;;;;;;1714702;28;20229;-78
2022/05/02 09:49:35;;;;;;;13.23;12.05;;;22.90;97.20;;;;;;1714783;28;20200;-78
2022/05/02 09:50:31;;;;;;;13.00;11.65;;;22.90;97.20;;;;;;1714762;28;20234;-78
2022/05/02 09:51:54;;;;;;;11.35;10.35;;;23.00;97.20;;;;;;1718865;28;20196;-78
2022/05/02 09:53:04;;;;;;;11.68;10.77;;;23.10;97.20;;;;;;1721425;28;20213;-78
2022/05/02 09:54:02;;;;;;;9.55;8.80;;;23.20;97.20;;;;;;1721424;28;20208;-78
2022/05/02 09:56:45;;;;;;;11.70;10.70;;;23.30;97.20;;;;;;1700687;29;20254;-78
2022/05/02 09:57:51;;;;;;;10.90;10.00;;;23.50;97.20;;;;;;1718119;28;20640;-78
2022/05/02 09:58:48;;;;;;;10.50;9.70;;;23.50;97.20;;;;;;1721135;28;20209;-78
2022/05/02 09:59:47;;;;;;;10.70;9.80;;;23.60;97.20;;;;;;1721192;28;20257;-78
2022/05/02 10:01:10;;;;;;;10.57;9.68;;;23.70;97.20;;;;;;1716484;28;20190;-77
2022/05/02 10:02:06;;;;;;;10.55;9.65;;;23.80;97.20;;;;;;1714674;28;20201;-78
2022/05/02 10:03:09;;;;;;;9.88;9.00;;;23.90;97.20;;;;;;1714538;28;20208;-78
2022/05/02 10:04:21;;;;;;;10.38;9.50;;;24.00;97.20;;;;;;1714641;28;20213;-77
2022/05/02 10:05:21;;;;;;;10.85;9.95;;;24.00;97.20;;;;;;1712742;28;20242;-78
2022/05/02 10:06:19;;;;;;;12.05;11.15;;;24.10;97.20;;;;;;1714502;28;20205;-77
2022/05/02 10:07:16;;;;;;;11.77;10.68;;;24.10;96.50;;;;;;1714608;28;20217;-77
2022/05/02 10:08:24;;;;;;;9.95;9.05;;;24.10;96.50;;;;;;1714447;28;20713;-78
2022/05/02 10:09:23;;;;;;;11.18;10.18;;;24.10;96.70;;;;;;1720938;28;20248;-79
2022/05/02 10:10:23;;;;;;;9.70;8.90;;;24.10;96.90;;;;;;1721252;28;20579;-77
2022/05/02 10:11:35;;;;;;;10.70;9.77;;;24.20;97.20;;;;;;1721287;28;20202;-77
2022/05/02 10:12:37;;;;;;;11.25;10.25;;;24.20;97.20;;;;;;1721195;28;20626;-78
2022/05/02 10:13:37;;;;;;;11.52;10.52;;;24.30;97.20;;;;;;1743470;23;20240;-78
2022/05/02 10:14:51;;;;;;;11.38;10.48;;;24.40;96.80;;;;;;1706108;28;20217;-76
2022/05/02 10:15:57;;;;;;;11.02;10.13;;;24.50;96.20;;;;;;1703721;28;20572;-76
2022/05/02 10:16:51;;;;;;;11.20;10.30;;;24.50;95.80;;;;;;1707966;28;20207;-76
2022/05/02 10:18:04;;;;;;;11.50;10.60;;;24.50;95.60;;;;;;1706661;28;20232;-76
2022/05/02 10:19:14;;;;;;;10.73;9.82;;;24.50;95.20;;;;;;1707923;28;20546;-76
2022/05/02 10:20:16;;;;;;;12.10;10.95;;;24.30;95.20;;;;;;1707958;29;20203;-76
2022/05/02 10:21:20;;;;;;;11.07;10.13;;;24.20;95.80;;;;;;1707596;28;20685;-76
2022/05/02 10:22:31;;;;;;;11.60;10.65;;;24.20;95.90;;;;;;1708064;28;20226;-76
2022/05/02 10:23:45;;;;;;;11.63;10.63;;;24.30;96.20;;;;;;1708117;28;20266;-76
2022/05/02 10:24:55;;;;;;;10.63;9.82;;;24.40;96.10;;;;;;1701355;29;20215;-76
2022/05/02 10:25:55;;;;;;;11.93;10.70;;;24.50;95.30;;;;;;1701318;29;20617;-76
2022/05/02 10:26:52;;;;;;;9.95;9.15;;;24.50;94.50;;;;;;1701286;29;20254;-76
2022/05/02 10:28:15;;;;;;;10.77;9.77;;;24.60;94.40;;;;;;1701449;29;20206;-76
2022/05/02 10:29:41;;;;;;;10.95;10.02;;;24.70;94.00;;;;;;1689335;29;20593;-76
2022/05/02 10:30:53;;;;;;;11.38;10.48;;;24.70;94.50;;;;;;1701265;29;20290;-76
2022/05/02 10:31:50;;;;;;;12.00;10.90;;;24.70;93.60;;;;;;1694844;29;20219;-76
2022/05/02 10:32:52;;;;;;;10.90;9.80;;;24.60;93.60;;;;;;1694850;29;20723;-76
2022/05/02 10:33:45;;;;;;;10.77;9.80;;;24.60;93.10;;;;;;1694591;29;20212;-76
2022/05/02 10:34:38;;;;;;;10.10;9.30;;;24.60;93.80;;;;;;1694736;29;20207;-76
2022/05/02 10:35:29;;;;;;;11.55;10.55;;;24.70;94.20;;;;;;1694654;29;20211;-75
2022/05/02 10:36:23;;;;;;;11.67;10.67;;;24.80;93.80;;;;;;1694674;29;20203;-75